Time;durP1;ratioP1;P1;durP2;ratioP2;P2;SDS_P1;SDS_P2;PMS_P1;PMS_P2;Temp;Humidity;BMP_temperature;BMP_pressure;BME280_temperature;BME280_humidity;BME280_pressure;Samples;Min_cycle;Max_cycle;Signal;HPM_P1;HPM_P2
2022/09/02 00:00:34;;;;;;;3.10;1.33;;;15.30;96.20;;;;;;5035478;28;20374;-78
2022/09/02 00:02:59;;;;;;;3.20;1.13;;;15.30;96.20;;;;;;5035008;28;20075;-78
2022/09/02 00:05:25;;;;;;;2.10;1.25;;;15.30;96.20;;;;;;5034955;28;20041;-78
2022/09/02 00:07:50;;;;;;;1.93;0.90;;;15.30;96.30;;;;;;5033248;28;20049;-78
2022/09/02 00:10:16;;;;;;;3.20;1.30;;;15.30;96.40;;;;;;5034847;28;20128;-78
2022/09/02 00:12:42;;;;;;;1.87;1.00;;;15.30;96.60;;;;;;5034895;28;20093;-78
2022/09/02 00:15:08;;;;;;;1.98;0.90;;;15.20;96.60;;;;;;5034625;28;20053;-78
2022/09/02 00:17:33;;;;;;;4.17;1.00;;;15.20;96.70;;;;;;5033525;28;20064;-78
2022/09/02 00:19:59;;;;;;;1.77;0.80;;;15.20;96.90;;;;;;5034984;28;20771;-77
2022/09/02 00:22:24;;;;;;;2.57;1.03;;;15.10;96.80;;;;;;5034705;28;20385;-78
2022/09/02 00:24:50;;;;;;;1.80;1.07;;;15.10;96.90;;;;;;5034530;28;20096;-78
2022/09/02 00:27:16;;;;;;;2.67;0.90;;;15.10;97.00;;;;;;5037308;28;20041;-78
2022/09/02 00:29:41;;;;;;;1.10;0.70;;;15.00;97.10;;;;;;5035885;28;20037;-78
2022/09/02 00:32:07;;;;;;;2.60;1.00;;;15.10;97.10;;;;;;5033211;28;20047;-78
2022/09/02 00:34:32;;;;;;;2.23;0.80;;;15.00;97.20;;;;;;5034658;28;20092;-78
2022/09/02 00:36:58;;;;;;;1.63;0.90;;;15.00;97.20;;;;;;5034415;28;20555;-78
2022/09/02 00:39:24;;;;;;;3.67;1.10;;;15.00;97.40;;;;;;5034319;28;20045;-79
2022/09/02 00:41:51;;;;;;;2.55;0.95;;;15.00;97.50;;;;;;5034364;28;20054;-78
2022/09/02 00:44:18;;;;;;;1.30;0.88;;;14.90;97.40;;;;;;5034558;28;20595;-78
2022/09/02 00:46:45;;;;;;;10.15;1.23;;;14.90;97.60;;;;;;5033194;28;20045;-79
2022/09/02 00:49:32;;;;;;;1.85;0.88;;;14.90;97.80;;;;;;5034181;28;20106;-79
2022/09/02 00:52:09;;;;;;;3.13;1.00;;;14.80;98.10;;;;;;5033010;28;20045;-78
2022/09/02 00:55:03;;;;;;;2.47;0.95;;;14.80;98.10;;;;;;5033011;28;20048;-79
2022/09/02 00:57:37;;;;;;;1.30;0.85;;;14.80;98.40;;;;;;5029221;28;20099;-77
2022/09/02 01:00:09;;;;;;;2.72;0.88;;;14.70;98.30;;;;;;5034336;28;20085;-78
2022/09/02 01:02:37;;;;;;;2.65;1.02;;;14.70;98.30;;;;;;5034038;28;20132;-78
2022/09/02 01:05:05;;;;;;;3.70;0.90;;;14.70;98.50;;;;;;5033924;28;20041;-78
2022/09/02 01:07:33;;;;;;;5.05;0.93;;;14.70;98.50;;;;;;5033693;28;20046;-78
2022/09/02 01:10:01;;;;;;;2.22;0.90;;;14.60;98.90;;;;;;5033850;28;20453;-79
2022/09/02 01:12:29;;;;;;;1.90;0.90;;;14.80;98.90;;;;;;5033762;28;20046;-78
2022/09/02 01:14:56;;;;;;;2.58;0.90;;;14.60;98.90;;;;;;5033894;28;20053;-78
2022/09/02 01:17:23;;;;;;;2.67;0.80;;;14.60;99.00;;;;;;5033901;28;20053;-78
2022/09/02 01:19:53;;;;;;;1.40;0.85;;;14.60;98.90;;;;;;5033656;28;20049;-78
2022/09/02 01:22:24;;;;;;;2.88;1.02;;;14.60;99.10;;;;;;5033667;28;20175;-78
2022/09/02 01:24:50;;;;;;;1.63;1.05;;;14.50;99.60;;;;;;5034068;28;20041;-78
2022/09/02 01:27:20;;;;;;;1.52;0.80;;;14.50;99.20;;;;;;5035124;28;20060;-78
2022/09/02 01:29:50;;;;;;;1.92;0.90;;;14.50;99.60;;;;;;5033855;28;20053;-78
2022/09/02 01:32:17;;;;;;;1.92;0.93;;;14.50;99.60;;;;;;5033592;28;20056;-77
2022/09/02 01:34:42;;;;;;;2.10;1.02;;;14.40;99.40;;;;;;5033504;28;20616;-77
2022/09/02 01:37:09;;;;;;;1.45;1.00;;;14.40;99.60;;;;;;5033609;28;20144;-79
2022/09/02 01:39:34;;;;;;;1.60;0.95;;;14.30;99.60;;;;;;5033544;28;20041;-78
2022/09/02 01:42:01;;;;;;;3.83;0.80;;;14.30;99.70;;;;;;5033726;28;20065;-78
2022/09/02 01:44:27;;;;;;;1.50;0.93;;;14.30;99.90;;;;;;5032025;28;20049;-78
2022/09/02 01:46:53;;;;;;;3.10;0.88;;;14.30;99.90;;;;;;5033152;28;20057;-78
2022/09/02 01:49:19;;;;;;;1.30;0.70;;;14.20;99.90;;;;;;5033179;28;20056;-78
2022/09/02 01:51:45;;;;;;;2.50;1.08;;;14.20;99.90;;;;;;5033427;28;20060;-78
2022/09/02 01:54:11;;;;;;;2.15;1.00;;;14.20;99.90;;;;;;5033321;28;20584;-78
2022/09/02 01:56:37;;;;;;;3.37;0.90;;;14.20;99.90;;;;;;5033452;28;20045;-78
2022/09/02 01:59:03;;;;;;;2.80;1.17;;;14.10;99.90;;;;;;5033438;28;20320;-77
2022/09/02 02:01:29;;;;;;;6.93;1.20;;;14.10;99.90;;;;;;5032511;28;20096;-78
2022/09/02 02:03:54;;;;;;;1.15;0.73;;;14.10;99.90;;;;;;5033853;28;20041;-78
2022/09/02 02:06:20;;;;;;;1.00;0.80;;;14.10;99.90;;;;;;5033515;28;20041;-78
2022/09/02 02:08:46;;;;;;;4.10;1.00;;;14.20;99.90;;;;;;5033323;28;20050;-78
2022/09/02 02:11:18;;;;;;;5.40;0.88;;;14.00;99.90;;;;;;5032367;28;20048;-78
2022/09/02 02:13:44;;;;;;;1.23;0.90;;;14.00;99.90;;;;;;5033117;28;20111;-78
2022/09/02 02:16:09;;;;;;;2.33;1.13;;;14.00;99.90;;;;;;5033259;28;20474;-78
2022/09/02 02:18:36;;;;;;;2.40;1.15;;;13.90;99.90;;;;;;5033111;28;20443;-78
2022/09/02 02:21:02;;;;;;;1.35;0.80;;;14.00;99.90;;;;;;5033279;28;20049;-78
2022/09/02 02:23:27;;;;;;;1.63;0.98;;;13.90;99.90;;;;;;5032699;28;20497;-77
2022/09/02 02:25:53;;;;;;;1.92;1.00;;;13.90;99.90;;;;;;5033015;28;20051;-78
2022/09/02 02:28:19;;;;;;;1.90;1.00;;;13.90;99.90;;;;;;5034463;28;20042;-78
2022/09/02 02:30:44;;;;;;;1.38;0.80;;;13.90;99.90;;;;;;5033787;28;20536;-78
2022/09/02 02:33:10;;;;;;;1.88;1.10;;;13.90;99.90;;;;;;5036674;28;20053;-78
2022/09/02 02:35:35;;;;;;;2.60;0.90;;;13.90;99.90;;;;;;5036637;28;20116;-78
2022/09/02 02:38:01;;;;;;;1.67;0.90;;;13.80;99.90;;;;;;5037126;28;20054;-78
2022/09/02 02:40:27;;;;;;;4.82;1.02;;;13.80;99.90;;;;;;5036597;28;20500;-78
2022/09/02 02:42:53;;;;;;;3.73;1.10;;;13.80;99.90;;;;;;5036512;28;20201;-78
2022/09/02 02:45:20;;;;;;;2.33;1.00;;;13.90;99.90;;;;;;5036489;28;20045;-78
2022/09/02 02:47:46;;;;;;;2.58;1.00;;;13.70;99.90;;;;;;5036416;28;20284;-78
2022/09/02 02:50:14;;;;;;;2.03;1.13;;;13.70;99.90;;;;;;5036127;28;20587;-78
2022/09/02 02:52:41;;;;;;;2.97;0.90;;;13.90;99.90;;;;;;5036340;28;20045;-78
2022/09/02 02:55:08;;;;;;;3.42;1.05;;;13.70;99.90;;;;;;5036701;28;20048;-78
2022/09/02 02:57:34;;;;;;;;;;;13.70;99.90;;;;;;5036850;28;20179;-78
2022/09/02 03:00:27;;;;;;;1.95;1.15;;;13.60;99.90;;;;;;5036170;28;19928;-78
2022/09/02 03:02:59;;;;;;;2.80;1.10;;;13.60;99.90;;;;;;5032822;28;20383;-78
2022/09/02 03:05:25;;;;;;;3.20;1.00;;;13.60;99.90;;;;;;5036425;28;20042;-78
2022/09/02 03:07:51;;;;;;;2.63;1.05;;;13.50;99.90;;;;;;5035814;28;20497;-78
2022/09/02 03:10:17;;;;;;;1.53;0.90;;;13.50;99.90;;;;;;5036025;28;20129;-78
2022/09/02 03:12:46;;;;;;;1.80;1.10;;;13.50;99.90;;;;;;5035974;28;20057;-78
2022/09/02 03:15:15;;;;;;;1.65;1.10;;;13.50;99.90;;;;;;5035752;28;20053;-79
2022/09/02 03:17:42;;;;;;;2.25;1.05;;;13.40;99.90;;;;;;5036106;28;20122;-78
2022/09/02 03:20:08;;;;;;;;;;;13.80;99.90;;;;;;5036543;28;20462;-77
2022/09/02 03:22:37;;;;;;;4.15;1.15;;;13.40;99.90;;;;;;5018309;28;19963;-78
2022/09/02 03:25:05;;;;;;;1.60;1.00;;;13.40;99.90;;;;;;5034508;28;20048;-78
2022/09/02 03:27:30;;;;;;;2.55;1.10;;;13.40;99.90;;;;;;5036233;28;20095;-78
2022/09/02 03:29:56;;;;;;;3.10;1.13;;;13.40;99.90;;;;;;5036420;28;20045;-78
2022/09/02 03:32:22;;;;;;;2.50;1.20;;;13.30;99.90;;;;;;5034874;28;20052;-78
2022/09/02 03:34:47;;;;;;;1.92;1.10;;;13.50;99.90;;;;;;5035744;28;20046;-78
2022/09/02 03:37:13;;;;;;;3.03;1.30;;;13.20;99.90;;;;;;5034615;28;20049;-78
2022/09/02 03:39:39;;;;;;;3.85;1.30;;;13.20;99.90;;;;;;5035184;28;20050;-77
2022/09/02 03:42:06;;;;;;;2.75;1.10;;;13.20;99.90;;;;;;5034634;28;20046;-78
2022/09/02 03:44:33;;;;;;;2.42;1.30;;;13.20;99.90;;;;;;5033951;28;20045;-78
2022/09/02 03:46:59;;;;;;;1.92;1.08;;;13.20;99.90;;;;;;5034529;28;20473;-78
2022/09/02 03:49:26;;;;;;;2.20;1.00;;;13.20;99.90;;;;;;5034483;28;20057;-77
2022/09/02 03:51:52;;;;;;;2.42;1.00;;;13.10;99.90;;;;;;5035197;28;20128;-78
2022/09/02 03:54:18;;;;;;;3.23;1.27;;;13.10;99.90;;;;;;5035129;28;20117;-78
2022/09/02 03:56:43;;;;;;;2.55;1.23;;;13.10;99.90;;;;;;5035133;28;20049;-78
2022/09/02 03:59:09;;;;;;;1.98;1.30;;;13.10;99.90;;;;;;5035081;28;20053;-78
2022/09/02 04:01:35;;;;;;;2.95;1.20;;;13.00;99.90;;;;;;5035055;28;20060;-78
2022/09/02 04:04:02;;;;;;;4.10;1.30;;;13.00;99.90;;;;;;5035060;28;20088;-78
2022/09/02 04:06:27;;;;;;;1.83;1.10;;;12.90;99.90;;;;;;5034315;28;20049;-78
2022/09/02 04:08:53;;;;;;;1.60;1.15;;;13.00;99.90;;;;;;5034925;28;20052;-78
2022/09/02 04:11:21;;;;;;;3.10;1.20;;;13.20;99.90;;;;;;5034851;28;20084;-77
2022/09/02 04:13:49;;;;;;;3.13;1.08;;;12.90;99.90;;;;;;5033590;28;20137;-78
2022/09/02 04:16:18;;;;;;;1.95;1.20;;;12.90;99.90;;;;;;5034042;28;20099;-77
2022/09/02 04:18:44;;;;;;;2.80;1.10;;;13.30;99.90;;;;;;5034557;28;20523;-78
2022/09/02 04:21:10;;;;;;;2.00;1.03;;;12.80;99.90;;;;;;5034695;28;20081;-78
2022/09/02 04:23:37;;;;;;;2.30;1.27;;;12.80;99.90;;;;;;5033504;28;20061;-78
2022/09/02 04:26:09;;;;;;;2.80;1.02;;;12.90;99.90;;;;;;5034232;28;20560;-77
2022/09/02 04:28:35;;;;;;;2.20;1.30;;;12.80;99.90;;;;;;5036167;28;20404;-77
2022/09/02 04:31:06;;;;;;;3.10;1.13;;;12.80;99.90;;;;;;5034578;28;20049;-78
2022/09/02 04:33:32;;;;;;;3.00;1.30;;;12.80;99.90;;;;;;5033833;28;20399;-78
2022/09/02 04:35:57;;;;;;;2.03;1.20;;;12.80;99.90;;;;;;5034091;28;20481;-77
2022/09/02 04:38:23;;;;;;;1.88;1.27;;;12.70;99.90;;;;;;5034342;28;20280;-78
2022/09/02 04:40:48;;;;;;;4.88;1.50;;;12.70;99.90;;;;;;5034287;28;20393;-78
2022/09/02 04:43:14;;;;;;;2.78;1.60;;;12.90;99.90;;;;;;5034694;28;20116;-78
2022/09/02 04:45:44;;;;;;;2.72;1.27;;;12.70;99.90;;;;;;5034260;28;20392;-78
2022/09/02 04:48:10;;;;;;;1.92;1.20;;;12.70;99.90;;;;;;5032957;28;20060;-78
2022/09/02 04:50:38;;;;;;;3.53;1.20;;;12.70;99.90;;;;;;5033920;28;20143;-78
2022/09/02 04:53:04;;;;;;;1.80;1.30;;;12.70;99.90;;;;;;5034069;28;20045;-78
2022/09/02 04:55:31;;;;;;;2.22;1.20;;;12.70;99.90;;;;;;5034275;28;20041;-78
2022/09/02 04:57:57;;;;;;;4.20;1.42;;;12.70;99.90;;;;;;5034135;28;20054;-78
2022/09/02 05:00:24;;;;;;;2.40;1.35;;;12.70;99.90;;;;;;5034649;28;20037;-77
2022/09/02 05:02:53;;;;;;;5.15;1.50;;;12.70;99.90;;;;;;5034020;28;20068;-78
2022/09/02 05:05:18;;;;;;;2.67;1.30;;;12.70;99.90;;;;;;5033640;28;20489;-78
2022/09/02 05:07:44;;;;;;;2.10;1.30;;;12.70;99.90;;;;;;5033933;28;20047;-78
2022/09/02 05:10:12;;;;;;;2.88;1.40;;;12.80;99.90;;;;;;5033831;28;20060;-78
2022/09/02 05:12:39;;;;;;;2.47;1.30;;;12.80;99.90;;;;;;5033799;28;20056;-78
2022/09/02 05:15:05;;;;;;;2.08;1.20;;;12.80;99.90;;;;;;5034065;28;20064;-78
2022/09/02 05:17:31;;;;;;;3.20;1.40;;;12.70;99.90;;;;;;5033816;28;20088;-78
2022/09/02 05:19:57;;;;;;;5.97;1.50;;;12.80;99.90;;;;;;5033757;28;20053;-78
2022/09/02 05:22:24;;;;;;;3.70;1.40;;;12.80;99.90;;;;;;5033656;28;20056;-78
2022/09/02 05:24:50;;;;;;;;;;;13.00;99.90;;;;;;5032923;28;20041;-78
2022/09/02 05:27:16;;;;;;;2.03;1.10;;;12.80;99.90;;;;;;5033788;28;20357;-78
2022/09/02 05:29:42;;;;;;;3.88;1.38;;;12.80;99.90;;;;;;5034541;28;20092;-78
2022/09/02 05:32:08;;;;;;;2.83;1.37;;;12.80;99.90;;;;;;5033652;28;20046;-78
2022/09/02 05:34:36;;;;;;;2.90;1.35;;;12.90;99.90;;;;;;5033678;28;20052;-78
2022/09/02 05:37:02;;;;;;;3.00;1.42;;;12.90;99.90;;;;;;5032403;28;20037;-78
2022/09/02 05:39:29;;;;;;;2.97;1.38;;;12.90;99.90;;;;;;5033520;28;20132;-77
2022/09/02 05:41:55;;;;;;;;;;;12.90;99.90;;;;;;5033910;28;20053;-78
2022/09/02 05:44:21;;;;;;;1.73;1.20;;;12.90;99.90;;;;;;5033439;28;19927;-78
2022/09/02 05:46:46;;;;;;;2.70;1.50;;;13.00;99.90;;;;;;5033535;28;20042;-78
2022/09/02 05:49:16;;;;;;;2.10;1.40;;;13.00;99.90;;;;;;5033411;28;20478;-78
2022/09/02 05:51:51;;;;;;;8.88;1.38;;;13.10;99.90;;;;;;5033349;28;20107;-78
2022/09/02 05:54:24;;;;;;;3.70;1.48;;;13.10;99.90;;;;;;5033362;28;20038;-77
2022/09/02 05:56:52;;;;;;;8.18;2.00;;;13.10;99.90;;;;;;5033326;28;20100;-78
2022/09/02 05:59:19;;;;;;;7.07;2.42;;;13.20;99.90;;;;;;5033363;28;20477;-78
2022/09/02 06:01:46;;;;;;;3.60;1.70;;;13.20;99.90;;;;;;5033378;28;20033;-78
2022/09/02 06:04:12;;;;;;;;;;;13.20;99.90;;;;;;5033775;28;20087;-78
2022/09/02 06:06:38;;;;;;;3.75;1.60;;;13.30;99.90;;;;;;5034352;28;20357;-78
2022/09/02 06:09:07;;;;;;;5.25;1.40;;;13.30;99.90;;;;;;5037177;28;20056;-78
2022/09/02 06:11:33;;;;;;;5.85;1.60;;;13.40;99.90;;;;;;5037065;28;20512;-78
2022/09/02 06:14:01;;;;;;;5.03;1.20;;;13.40;99.90;;;;;;5036908;28;20075;-78
2022/09/02 06:16:27;;;;;;;6.13;2.00;;;13.50;99.90;;;;;;5036960;28;20042;-77
2022/09/02 06:18:52;;;;;;;4.70;1.50;;;13.50;99.90;;;;;;5036903;28;20048;-78
2022/09/02 06:21:19;;;;;;;2.60;1.55;;;13.60;99.90;;;;;;5035737;28;20041;-78
2022/09/02 06:23:47;;;;;;;4.05;1.80;;;13.60;99.90;;;;;;5037306;28;20045;-78
2022/09/02 06:26:14;;;;;;;2.80;1.35;;;13.70;99.90;;;;;;5036878;28;20502;-78
2022/09/02 06:28:39;;;;;;;;;;;13.80;99.90;;;;;;5039182;28;20115;-78
2022/09/02 06:31:13;;;;;;;3.60;1.30;;;13.90;99.90;;;;;;5036975;28;20352;-78
2022/09/02 06:33:40;;;;;;;4.75;1.70;;;14.00;99.90;;;;;;5036694;28;20063;-78
2022/09/02 06:36:10;;;;;;;6.93;1.92;;;14.10;99.90;;;;;;5035764;28;20121;-77
2022/09/02 06:38:38;;;;;;;3.85;1.60;;;14.20;99.90;;;;;;5037311;28;20437;-78
2022/09/02 06:41:04;;;;;;;3.60;1.60;;;14.40;99.90;;;;;;5036870;28;20049;-77
2022/09/02 06:43:30;;;;;;;3.75;1.65;;;14.60;99.90;;;;;;5036561;28;20052;-78
2022/09/02 06:45:56;;;;;;;5.10;1.48;;;14.70;99.90;;;;;;5036455;28;20041;-78
2022/09/02 06:48:22;;;;;;;5.23;1.63;;;14.80;99.90;;;;;;5036942;28;20512;-78
2022/09/02 06:50:47;;;;;;;3.05;1.67;;;15.20;99.90;;;;;;5036460;28;20084;-79
2022/09/02 06:53:16;;;;;;;8.90;1.60;;;15.10;99.90;;;;;;5037033;28;20041;-78
2022/09/02 06:55:43;;;;;;;4.60;1.80;;;15.30;99.90;;;;;;5037025;28;20397;-78
2022/09/02 06:58:10;;;;;;;2.95;1.50;;;15.40;99.90;;;;;;5035101;28;20075;-75
2022/09/02 07:00:36;;;;;;;5.43;1.80;;;15.70;99.90;;;;;;5034849;28;20405;-78
2022/09/02 07:05:57;;;;;;;4.68;1.70;;;15.80;99.90;;;;;;5034803;28;20054;-78
2022/09/02 07:08:23;;;;;;;3.17;1.50;;;16.00;99.90;;;;;;5036155;28;20038;-78
2022/09/02 07:10:48;;;;;;;5.17;1.73;;;16.10;99.90;;;;;;5034284;28;20057;-78
2022/09/02 07:13:14;;;;;;;4.57;1.60;;;16.30;99.90;;;;;;5035450;28;20385;-78
2022/09/02 07:15:40;;;;;;;5.73;1.63;;;16.40;99.90;;;;;;5036383;28;20053;-78
2022/09/02 07:18:06;;;;;;;5.77;1.87;;;16.40;99.90;;;;;;5035725;28;20045;-78
2022/09/02 07:20:31;;;;;;;5.57;1.50;;;16.60;99.90;;;;;;5035670;28;20056;-78
2022/09/02 07:22:57;;;;;;;7.63;1.93;;;16.70;99.90;;;;;;5035631;28;20037;-78
2022/09/02 07:25:23;;;;;;;3.77;1.40;;;16.80;99.90;;;;;;5035739;28;20044;-78
2022/09/02 07:27:50;;;;;;;5.43;1.40;;;16.90;99.90;;;;;;5034452;28;20041;-78
2022/09/02 07:30:15;;;;;;;3.85;1.40;;;16.90;99.90;;;;;;5035759;28;20049;-78
2022/09/02 07:32:41;;;;;;;3.77;1.33;;;17.10;99.90;;;;;;5035543;28;20048;-78
2022/09/02 07:35:07;;;;;;;4.67;1.20;;;17.50;99.90;;;;;;5035400;28;20053;-78
2022/09/02 07:37:36;;;;;;;7.13;1.37;;;17.40;99.90;;;;;;5035496;28;20091;-78
2022/09/02 07:40:06;;;;;;;2.08;1.35;;;17.50;99.90;;;;;;5035503;28;20049;-78
2022/09/02 07:42:32;;;;;;;4.53;1.27;;;17.70;99.90;;;;;;5034530;28;20088;-78
2022/09/02 07:44:58;;;;;;;2.63;1.23;;;17.70;99.90;;;;;;5035427;28;20100;-78
2022/09/02 07:47:23;;;;;;;5.43;1.37;;;17.90;99.90;;;;;;5035088;28;20049;-78
2022/09/02 07:49:49;;;;;;;3.57;1.40;;;18.00;99.90;;;;;;5035301;28;20081;-78
2022/09/02 07:52:15;;;;;;;4.27;1.17;;;18.00;99.90;;;;;;5034554;28;20389;-79
2022/09/02 07:54:41;;;;;;;3.72;1.27;;;18.20;99.90;;;;;;5034104;28;20048;-78
2022/09/02 07:57:07;;;;;;;4.30;1.33;;;18.40;99.90;;;;;;5035096;28;20374;-78
2022/09/02 07:59:33;;;;;;;3.40;1.10;;;18.50;99.90;;;;;;5033963;28;20048;-78
2022/09/02 08:01:59;;;;;;;3.78;1.33;;;18.60;99.90;;;;;;5035111;28;20129;-78
2022/09/02 08:04:25;;;;;;;2.47;1.33;;;18.70;99.90;;;;;;5035046;28;20050;-78
2022/09/02 08:06:52;;;;;;;5.83;1.30;;;18.80;99.90;;;;;;5035021;28;20045;-78
2022/09/02 08:09:19;;;;;;;2.88;1.20;;;19.10;99.90;;;;;;5034958;28;20048;-78
2022/09/02 08:11:47;;;;;;;3.47;1.15;;;19.10;99.80;;;;;;5033642;28;20056;-78
2022/09/02 08:14:22;;;;;;;4.50;1.20;;;19.30;99.70;;;;;;5034537;28;20060;-78
2022/09/02 08:16:48;;;;;;;6.43;1.40;;;19.40;98.70;;;;;;5034752;28;20045;-78
2022/09/02 08:19:14;;;;;;;3.90;1.30;;;19.50;98.70;;;;;;5034636;28;20060;-78
2022/09/02 08:21:40;;;;;;;5.18;1.35;;;19.60;98.10;;;;;;5034677;28;20045;-79
2022/09/02 08:24:06;;;;;;;3.37;1.10;;;19.60;98.40;;;;;;5034593;28;20538;-79
2022/09/02 08:26:35;;;;;;;5.27;1.40;;;19.80;98.40;;;;;;5033436;28;20116;-78
2022/09/02 08:29:05;;;;;;;3.95;1.52;;;19.90;98.10;;;;;;5034368;28;20049;-78
2022/09/02 08:31:31;;;;;;;3.72;1.10;;;19.90;97.70;;;;;;5034538;28;20046;-79
2022/09/02 08:33:58;;;;;;;3.58;1.20;;;20.00;97.20;;;;;;5034287;28;20060;-78
2022/09/02 08:36:24;;;;;;;5.32;1.45;;;20.00;97.00;;;;;;5033407;28;20087;-79
2022/09/02 08:38:50;;;;;;;3.65;1.10;;;20.20;97.10;;;;;;5034416;28;20401;-79
2022/09/02 08:41:24;;;;;;;6.80;1.20;;;20.30;97.00;;;;;;5034255;28;20049;-79
2022/09/02 08:43:53;;;;;;;4.72;1.10;;;20.30;96.10;;;;;;5034333;28;20135;-79
2022/09/02 08:46:24;;;;;;;2.53;0.95;;;20.40;96.50;;;;;;5034375;28;20362;-79
2022/09/02 08:49:01;;;;;;;3.70;1.00;;;20.50;96.20;;;;;;5033225;28;20096;-78
2022/09/02 08:51:34;;;;;;;5.35;1.08;;;20.60;95.50;;;;;;5033041;28;20091;-78
2022/09/02 08:54:12;;;;;;;6.00;1.10;;;20.80;95.80;;;;;;5033701;28;20053;-78
2022/09/02 08:56:38;;;;;;;2.15;1.00;;;20.90;95.40;;;;;;5034215;28;20045;-79
2022/09/02 08:59:05;;;;;;;7.60;1.50;;;21.00;95.50;;;;;;5034061;28;20049;-78
2022/09/02 09:01:51;;;;;;;2.15;1.00;;;21.10;95.40;;;;;;5034001;28;20464;-79
2022/09/02 09:04:25;;;;;;;2.13;1.20;;;21.20;95.10;;;;;;5034507;28;20081;-78
2022/09/02 09:07:11;;;;;;;2.78;1.17;;;21.30;94.80;;;;;;5034110;28;20038;-79
2022/09/02 09:10:24;;;;;;;2.45;1.15;;;21.30;94.30;;;;;;5033284;28;20489;-79
2022/09/02 09:13:03;;;;;;;3.72;1.02;;;21.40;94.20;;;;;;5033875;28;20045;-78
2022/09/02 09:15:28;;;;;;;4.07;1.10;;;21.50;93.90;;;;;;5033373;28;20556;-79
2022/09/02 09:18:01;;;;;;;3.53;1.17;;;21.60;93.80;;;;;;5033710;28;20095;-78
2022/09/02 09:20:31;;;;;;;2.83;0.95;;;21.60;93.50;;;;;;5033948;28;20488;-79
2022/09/02 09:23:04;;;;;;;6.40;1.13;;;21.70;93.50;;;;;;5033616;28;20116;-79
2022/09/02 09:25:30;;;;;;;2.90;1.08;;;21.80;93.30;;;;;;5033724;28;20052;-79
2022/09/02 09:27:56;;;;;;;4.13;1.17;;;21.90;93.40;;;;;;5033642;28;20045;-79
2022/09/02 09:30:22;;;;;;;3.35;1.00;;;22.00;93.00;;;;;;5032678;28;20532;-78
2022/09/02 09:32:53;;;;;;;1.83;0.80;;;21.80;92.90;;;;;;5033609;28;20084;-79
2022/09/02 09:35:20;;;;;;;4.97;1.10;;;22.00;92.10;;;;;;5032420;28;20049;-77
2022/09/02 09:37:53;;;;;;;3.47;0.95;;;21.90;92.40;;;;;;5033435;28;20052;-77
2022/09/02 09:40:22;;;;;;;4.47;1.20;;;22.30;92.60;;;;;;5033525;28;20037;-77
2022/09/02 09:42:56;;;;;;;3.28;1.00;;;22.30;92.50;;;;;;5037626;28;20042;-77
2022/09/02 09:45:24;;;;;;;4.55;1.00;;;22.30;92.10;;;;;;5037520;28;20048;-77
2022/09/02 09:48:26;;;;;;;1.65;0.73;;;22.40;91.50;;;;;;5037649;28;20041;-77
2022/09/02 09:50:54;;;;;;;3.70;1.00;;;22.50;91.00;;;;;;5033550;28;20057;-77
2022/09/02 09:53:23;;;;;;;5.00;1.10;;;22.60;91.50;;;;;;5037429;28;20046;-77
2022/09/02 09:56:09;;;;;;;3.25;1.00;;;22.70;91.30;;;;;;5037384;28;20392;-77
2022/09/02 09:58:44;;;;;;;3.30;0.85;;;22.80;90.90;;;;;;5037473;28;20065;-77
2022/09/02 10:01:30;;;;;;;5.25;0.90;;;22.90;90.30;;;;;;5037346;28;20045;-78
2022/09/02 10:04:24;;;;;;;2.08;0.70;;;23.00;90.20;;;;;;5037340;28;20049;-78
2022/09/02 10:06:49;;;;;;;3.45;0.75;;;23.20;90.60;;;;;;5037132;28;20045;-77
2022/09/02 10:09:18;;;;;;;5.47;0.80;;;23.30;90.10;;;;;;5037636;28;20577;-78
2022/09/02 10:11:56;;;;;;;3.72;1.15;;;23.50;90.10;;;;;;5037139;28;20061;-78
2022/09/02 10:14:22;;;;;;;1.83;0.80;;;23.50;86.60;;;;;;5037028;28;20049;-78
2022/09/02 10:17:29;;;;;;;1.92;0.73;;;23.50;85.70;;;;;;5037150;28;20124;-78
2022/09/02 10:20:14;;;;;;;4.03;0.98;;;23.50;84.60;;;;;;4983108;28;20477;-77
2022/09/02 10:22:51;;;;;;;2.47;0.80;;;23.60;85.90;;;;;;5037614;28;20351;-78
2022/09/02 10:25:31;;;;;;;;;;;23.70;84.60;;;;;;5037315;28;20128;-78
2022/09/02 10:28:18;;;;;;;3.25;0.70;;;23.80;83.70;;;;;;5037395;28;19921;-78
2022/09/02 10:30:59;;;;;;;3.15;1.00;;;23.80;82.10;;;;;;5035917;28;20076;-78
2022/09/02 10:33:28;;;;;;;3.50;0.80;;;23.80;82.40;;;;;;5037624;28;20061;-78
2022/09/02 10:36:05;;;;;;;8.57;0.88;;;23.70;81.90;;;;;;5036643;28;20478;-78
2022/09/02 10:38:49;;;;;;;1.35;0.60;;;23.80;83.00;;;;;;5036789;28;20045;-78
2022/09/02 10:41:45;;;;;;;6.28;1.15;;;23.90;81.40;;;;;;5036792;28;20057;-78
2022/09/02 10:44:45;;;;;;;2.38;0.70;;;23.90;81.80;;;;;;5036685;28;20046;-79
2022/09/02 10:47:29;;;;;;;2.97;0.90;;;24.00;81.80;;;;;;5036094;28;20110;-78
2022/09/02 10:50:28;;;;;;;2.55;0.70;;;24.10;81.90;;;;;;5036429;28;20053;-79
2022/09/02 10:53:08;;;;;;;2.65;0.80;;;24.30;81.90;;;;;;5032474;28;20144;-79
2022/09/02 10:55:57;;;;;;;4.78;0.70;;;24.50;81.30;;;;;;5036336;28;20469;-79
2022/09/02 10:58:57;;;;;;;1.80;0.80;;;24.50;80.10;;;;;;5036237;28;20144;-78
2022/09/02 11:01:32;;;;;;;3.95;0.90;;;24.60;79.90;;;;;;5036117;28;20056;-78
2022/09/02 11:04:08;;;;;;;5.75;0.60;;;24.60;79.70;;;;;;5036175;28;20049;-78
2022/09/02 11:06:42;;;;;;;1.52;0.80;;;24.60;80.10;;;;;;5035095;28;20076;-78
2022/09/02 11:09:23;;;;;;;2.75;0.80;;;24.60;79.90;;;;;;5036186;28;20099;-78
2022/09/02 11:11:52;;;;;;;4.07;0.90;;;24.50;79.70;;;;;;5036580;28;20441;-78
2022/09/02 11:14:31;;;;;;;2.28;0.80;;;24.60;80.70;;;;;;5034468;28;20064;-79
2022/09/02 11:17:13;;;;;;;2.97;0.80;;;24.80;80.40;;;;;;5036260;28;20141;-78
2022/09/02 11:19:48;;;;;;;4.05;0.93;;;24.80;80.30;;;;;;5034877;28;20056;-78
2022/09/02 11:22:28;;;;;;;4.32;0.90;;;24.80;80.40;;;;;;5035849;28;20061;-78
2022/09/02 11:25:07;;;;;;;4.45;1.00;;;24.80;80.90;;;;;;5034633;28;20131;-78
2022/09/02 11:27:58;;;;;;;4.32;0.90;;;25.00;80.90;;;;;;5034595;28;20045;-79
2022/09/02 11:30:44;;;;;;;1.75;0.88;;;25.00;79.20;;;;;;5034468;28;20045;-78
2022/09/02 11:33:29;;;;;;;4.22;1.10;;;25.10;80.20;;;;;;5035710;28;20046;-79
2022/09/02 11:35:57;;;;;;;6.80;1.27;;;25.10;79.50;;;;;;5018136;28;20515;-78
2022/09/02 11:38:41;;;;;;;1.75;0.85;;;25.20;80.80;;;;;;5035622;28;20501;-78
2022/09/02 11:41:38;;;;;;;3.22;1.00;;;25.10;79.90;;;;;;5035478;28;20037;-79
2022/09/02 11:44:49;;;;;;;4.07;0.95;;;25.10;79.90;;;;;;5034886;28;20053;-78
2022/09/02 11:47:48;;;;;;;4.35;0.95;;;25.40;80.90;;;;;;5035319;28;20049;-79
2022/09/02 11:50:41;;;;;;;2.10;0.82;;;25.50;79.40;;;;;;5004539;28;20059;-78
2022/09/02 11:53:27;;;;;;;4.82;1.00;;;25.60;79.20;;;;;;5035379;28;20085;-79
2022/09/02 11:56:01;;;;;;;1.42;0.80;;;25.60;78.60;;;;;;5035072;28;20381;-79
2022/09/02 11:58:42;;;;;;;4.82;1.00;;;25.70;77.50;;;;;;5035366;28;20052;-79
2022/09/02 12:01:14;;;;;;;2.78;0.93;;;25.80;78.80;;;;;;5035267;28;20070;-78
2022/09/02 12:03:49;;;;;;;3.28;0.80;;;25.60;76.40;;;;;;5034205;28;20128;-78
2022/09/02 12:06:18;;;;;;;3.63;0.80;;;25.60;77.40;;;;;;5035015;28;20516;-78
2022/09/02 12:08:43;;;;;;;3.38;0.82;;;25.60;78.70;;;;;;5034998;28;20049;-79
2022/09/02 12:11:38;;;;;;;9.63;1.13;;;25.70;78.20;;;;;;5035066;28;20393;-79
2022/09/02 12:14:22;;;;;;;2.95;0.90;;;25.90;77.90;;;;;;5034790;28;20061;-79
2022/09/02 12:17:02;;;;;;;3.67;0.90;;;25.90;77.60;;;;;;5034837;28;20081;-79
2022/09/02 12:19:40;;;;;;;4.40;1.15;;;25.90;76.80;;;;;;5034729;28;20110;-78
2022/09/02 12:22:15;;;;;;;5.85;1.10;;;25.90;77.20;;;;;;5034967;28;20061;-78
2022/09/02 12:24:57;;;;;;;1.50;0.90;;;25.90;76.90;;;;;;5033361;28;20103;-78
2022/09/02 12:27:36;;;;;;;3.10;0.95;;;26.10;77.80;;;;;;5034524;28;20049;-79
2022/09/02 12:30:08;;;;;;;3.20;1.08;;;26.30;75.90;;;;;;5034499;28;20041;-79
2022/09/02 12:32:49;;;;;;;2.67;0.93;;;26.20;75.30;;;;;;5034390;28;20501;-78
2022/09/02 12:35:40;;;;;;;3.85;1.25;;;26.30;75.90;;;;;;5034092;28;20393;-79
2022/09/02 12:38:09;;;;;;;3.88;0.98;;;26.40;75.50;;;;;;5034241;28;20379;-79
2022/09/02 12:40:41;;;;;;;2.55;0.80;;;26.50;76.40;;;;;;5034280;28;20045;-79
2022/09/02 12:43:24;;;;;;;4.43;1.20;;;26.50;75.50;;;;;;5033439;28;20080;-78
2022/09/02 12:45:55;;;;;;;2.90;1.20;;;26.50;75.90;;;;;;5034232;28;20124;-78
2022/09/02 12:48:26;;;;;;;4.22;1.27;;;26.60;76.10;;;;;;5033448;28;20055;-79
2022/09/02 12:50:57;;;;;;;2.92;1.00;;;26.70;76.50;;;;;;5034553;28;20107;-79
2022/09/02 12:53:23;;;;;;;2.25;0.80;;;26.70;75.90;;;;;;5034145;28;20115;-78
2022/09/02 12:56:11;;;;;;;5.70;1.10;;;26.70;75.00;;;;;;5034068;28;20481;-79
2022/09/02 12:58:43;;;;;;;3.92;0.80;;;26.60;74.40;;;;;;5023219;28;20099;-79
2022/09/02 13:01:31;;;;;;;1.40;0.80;;;26.60;74.50;;;;;;5034093;28;20052;-78
2022/09/02 13:03:57;;;;;;;1.98;0.90;;;26.60;74.80;;;;;;5033977;28;20481;-78
2022/09/02 13:06:45;;;;;;;2.73;0.90;;;26.60;74.70;;;;;;5033962;28;20125;-77
2022/09/02 13:09:51;;;;;;;3.60;0.90;;;26.50;73.90;;;;;;5034071;28;20041;-78